Time;durP1;ratioP1;P1;durP2;ratioP2;P2;SDS_P1;SDS_P2;PMS_P1;PMS_P2;Temp;Humidity;BMP_temperature;BMP_pressure;BME280_temperature;BME280_humidity;BME280_pressure;Samples;Min_cycle;Max_cycle;Signal;HPM_P1;HPM_P2
2023/03/27 00:00:27;;;;;;;;;;;24.90;28.50;;;;;;5109668;28;19968;-62
2023/03/27 00:02:53;;;;;;;;;;;24.90;28.60;;;;;;5106274;28;20068;-61
2023/03/27 00:05:20;;;;;;;;;;;24.90;28.00;;;;;;5106687;28;19953;-66
2023/03/27 00:07:48;;;;;;;;;;;24.90;28.00;;;;;;5106635;28;20012;-67
2023/03/27 00:10:15;;;;;;;;;;;24.90;28.20;;;;;;5111420;27;20000;-62
2023/03/27 00:12:43;;;;;;;;;;;24.90;28.00;;;;;;5108972;27;19997;-64
2023/03/27 00:15:14;;;;;;;;;;;25.00;28.30;;;;;;5110735;27;19960;-66
2023/03/27 00:17:43;;;;;;;;;;;25.00;28.40;;;;;;5111975;27;19958;-67
2023/03/27 00:20:09;;;;;;;;;;;24.90;28.30;;;;;;5111324;27;20463;-66
2023/03/27 00:22:35;;;;;;;;;;;24.90;28.30;;;;;;5109968;28;19996;-66
2023/03/27 00:25:01;;;;;;;;;;;24.80;28.10;;;;;;5112107;28;19965;-65
2023/03/27 00:27:27;;;;;;;;;;;24.60;28.30;;;;;;5109118;27;19972;-67
2023/03/27 00:29:53;;;;;;;;;;;24.70;28.20;;;;;;5109903;28;19981;-64
2023/03/27 00:32:19;;;;;;;;;;;24.50;28.20;;;;;;5114631;27;19963;-64
2023/03/27 00:34:45;;;;;;;;;;;24.60;28.60;;;;;;5119232;27;19959;-64
2023/03/27 00:37:11;;;;;;;;;;;24.40;28.50;;;;;;5116039;27;19963;-65
2023/03/27 00:39:39;;;;;;;;;;;24.10;28.80;;;;;;5117688;27;19965;-65
2023/03/27 00:42:07;;;;;;;;;;;24.20;28.70;;;;;;5114506;27;20345;-65
2023/03/27 00:44:33;;;;;;;;;;;24.10;28.50;;;;;;5115719;27;20026;-65
2023/03/27 00:47:01;;;;;;;;;;;23.90;29.30;;;;;;5121937;27;19956;-65
2023/03/27 00:49:30;;;;;;;;;;;23.70;28.90;;;;;;5119704;27;20792;-65
2023/03/27 00:51:57;;;;;;;;;;;23.70;29.20;;;;;;5122866;27;19954;-64
2023/03/27 00:54:30;;;;;;;;;;;23.60;29.40;;;;;;5118745;27;20033;-65
2023/03/27 00:56:58;;;;;;;;;;;23.40;29.90;;;;;;5121411;27;19964;-64
2023/03/27 00:59:27;;;;;;;;;;;23.30;30.00;;;;;;5117340;27;19964;-65
2023/03/27 01:01:53;;;;;;;;;;;23.50;30.00;;;;;;5121054;27;20038;-64
2023/03/27 01:04:20;;;;;;;;;;;23.30;29.50;;;;;;5114023;27;20433;-64
2023/03/27 01:06:49;;;;;;;;;;;23.20;29.60;;;;;;5119980;27;19970;-65
2023/03/27 01:09:15;;;;;;;;;;;23.20;29.70;;;;;;5122948;27;19973;-65
2023/03/27 01:11:41;;;;;;;;;;;23.20;29.80;;;;;;5118162;27;19957;-65
2023/03/27 01:14:10;;;;;;;;;;;23.10;29.70;;;;;;5114786;27;19969;-64
2023/03/27 01:16:48;;;;;;;;;;;22.90;29.80;;;;;;5111546;27;19960;-65
2023/03/27 01:19:23;;;;;;;;;;;22.90;30.10;;;;;;5111229;27;19961;-66
2023/03/27 01:22:03;;;;;;;;;;;22.70;29.80;;;;;;5118915;27;19993;-64
2023/03/27 01:24:48;;;;;;;;;;;22.60;30.00;;;;;;5117816;27;19959;-66
2023/03/27 01:27:18;;;;;;;;;;;22.40;30.70;;;;;;5115440;27;19963;-65
2023/03/27 01:29:55;;;;;;;;;;;22.40;31.10;;;;;;5117694;27;19963;-66
2023/03/27 01:32:39;;;;;;;;;;;22.30;30.80;;;;;;5120433;27;19978;-65
2023/03/27 01:35:14;;;;;;;;;;;22.10;30.70;;;;;;5112751;27;19967;-63
2023/03/27 01:37:40;;;;;;;;;;;22.00;30.80;;;;;;5110391;27;20049;-64
2023/03/27 01:40:11;;;;;;;;;;;22.00;31.00;;;;;;5121675;27;20059;-62
2023/03/27 01:42:43;;;;;;;;;;;22.00;31.40;;;;;;5108306;27;19979;-63
2023/03/27 01:45:17;;;;;;;;;;;21.80;31.40;;;;;;5113917;27;20036;-64
2023/03/27 01:47:46;;;;;;;;;;;21.60;31.60;;;;;;5114844;27;19966;-64
2023/03/27 01:50:12;;;;;;;;;;;21.60;31.70;;;;;;5115550;27;19962;-64
2023/03/27 01:52:40;;;;;;;;;;;21.60;31.80;;;;;;5117788;27;19965;-64
2023/03/27 01:55:10;;;;;;;;;;;21.50;32.10;;;;;;5115783;27;19958;-64
2023/03/27 01:57:40;;;;;;;;;;;21.30;32.00;;;;;;5119344;27;20256;-64
2023/03/27 02:00:16;;;;;;;;;;;21.30;32.40;;;;;;5121685;27;20035;-65
2023/03/27 02:02:49;;;;;;;;;;;21.30;32.50;;;;;;5117423;27;19974;-61
2023/03/27 02:05:24;;;;;;;;;;;21.20;32.40;;;;;;5118206;27;19965;-59
2023/03/27 02:08:11;;;;;;;;;;;21.10;32.40;;;;;;5115234;27;19975;-65
2023/03/27 02:10:39;;;;;;;;;;;21.00;32.20;;;;;;5096653;27;19959;-61
2023/03/27 02:13:09;;;;;;;;;;;20.90;32.30;;;;;;5119727;27;19963;-64
2023/03/27 02:15:37;;;;;;;;;;;20.90;32.50;;;;;;5114884;27;19958;-65
2023/03/27 02:18:08;;;;;;;;;;;20.80;32.50;;;;;;5117578;27;19959;-65
2023/03/27 02:20:36;;;;;;;;;;;20.80;32.90;;;;;;5115043;27;19954;-65
2023/03/27 02:23:02;;;;;;;;;;;20.80;33.00;;;;;;5116563;27;20042;-63
2023/03/27 02:25:30;;;;;;;;;;;20.60;33.00;;;;;;5115205;27;20313;-62
2023/03/27 02:27:59;;;;;;;;;;;20.50;33.70;;;;;;5117141;27;19966;-65
2023/03/27 02:30:37;;;;;;;;;;;20.30;33.90;;;;;;5115697;27;20319;-65
2023/03/27 02:33:13;;;;;;;;;;;20.30;33.80;;;;;;5114057;27;19966;-65
2023/03/27 02:35:47;;;;;;;;;;;20.20;34.10;;;;;;5115294;27;19955;-65
2023/03/27 02:38:13;;;;;;;;;;;20.10;34.40;;;;;;5115637;27;20059;-62
2023/03/27 02:40:54;;;;;;;;;;;20.00;34.90;;;;;;5115161;27;20372;-58
2023/03/27 02:43:27;;;;;;;;;;;19.90;35.20;;;;;;5113742;27;20073;-65
2023/03/27 02:46:00;;;;;;;;;;;19.80;35.70;;;;;;5112411;27;19967;-65
2023/03/27 02:48:27;;;;;;;;;;;19.80;35.50;;;;;;5118209;27;19979;-65
2023/03/27 02:50:55;;;;;;;;;;;19.80;35.60;;;;;;5113126;27;20073;-65
2023/03/27 02:53:22;;;;;;;;;;;19.80;36.60;;;;;;5121464;27;19962;-64
2023/03/27 02:55:51;;;;;;;;;;;19.70;36.60;;;;;;5116752;27;20485;-65
2023/03/27 02:58:21;;;;;;;;;;;19.80;36.50;;;;;;5121064;27;20117;-63
2023/03/27 03:00:47;;;;;;;;;;;19.80;36.80;;;;;;5116479;27;19967;-63
2023/03/27 03:03:17;;;;;;;;;;;19.70;37.20;;;;;;5113634;27;19984;-62
2023/03/27 03:05:43;;;;;;;;;;;19.70;37.10;;;;;;5115233;27;20059;-64
2023/03/27 03:08:09;;;;;;;;;;;19.60;37.50;;;;;;5114684;27;19975;-64
2023/03/27 03:10:36;;;;;;;;;;;19.50;37.60;;;;;;5117287;27;20463;-65
2023/03/27 03:13:02;;;;;;;;;;;19.40;38.60;;;;;;5112466;27;19966;-63
2023/03/27 03:15:28;;;;;;;;;;;19.30;38.50;;;;;;5116537;27;20052;-63
2023/03/27 03:17:54;;;;;;;;;;;19.20;38.90;;;;;;5122316;27;20003;-64
2023/03/27 03:20:21;;;;;;;;;;;19.10;39.00;;;;;;5115015;27;20525;-64
2023/03/27 03:22:48;;;;;;;;;;;19.00;39.50;;;;;;5117296;28;20443;-66
2023/03/27 03:25:14;;;;;;;;;;;19.00;40.00;;;;;;5111315;28;20021;-64
2023/03/27 03:27:40;;;;;;;;;;;18.90;39.60;;;;;;5114194;28;19978;-65
2023/03/27 03:30:08;;;;;;;;;;;18.90;40.00;;;;;;5119147;28;20045;-64
2023/03/27 03:32:34;;;;;;;;;;;18.80;39.70;;;;;;5116275;28;19961;-63
2023/03/27 03:35:00;;;;;;;;;;;18.80;39.80;;;;;;5117315;28;20447;-63
2023/03/27 03:37:27;;;;;;;;;;;18.80;42.10;;;;;;5101739;28;19987;-63
2023/03/27 03:39:54;;;;;;;;;;;18.70;41.70;;;;;;5116319;28;19990;-63
2023/03/27 03:42:21;;;;;;;;;;;18.60;41.30;;;;;;5118518;28;19975;-63
2023/03/27 03:44:47;;;;;;;;;;;18.40;41.20;;;;;;5113300;27;20078;-63
2023/03/27 03:47:13;;;;;;;;;;;18.40;40.90;;;;;;5117922;27;20412;-65
2023/03/27 03:49:39;;;;;;;;;;;18.20;41.60;;;;;;5104872;27;19959;-63
2023/03/27 03:52:06;;;;;;;;;;;18.20;41.40;;;;;;5121458;27;19987;-65
2023/03/27 03:54:32;;;;;;;;;;;18.10;40.70;;;;;;5121439;27;20343;-64
2023/03/27 03:56:58;;;;;;;;;;;18.20;41.20;;;;;;5123726;27;20383;-63
2023/03/27 03:59:24;;;;;;;;;;;18.20;41.80;;;;;;5120469;27;19975;-62
2023/03/27 04:01:50;;;;;;;;;;;18.10;41.50;;;;;;5124593;27;20037;-63
2023/03/27 04:04:16;;;;;;;;;;;18.00;41.40;;;;;;5124188;27;20428;-65
2023/03/27 04:06:44;;;;;;;;;;;18.00;41.10;;;;;;5118675;27;20072;-66
2023/03/27 04:09:10;;;;;;;;;;;18.00;41.00;;;;;;5115690;27;20024;-62
2023/03/27 04:11:36;;;;;;;;;;;18.00;40.00;;;;;;5115774;27;20493;-64
2023/03/27 04:14:02;;;;;;;;;;;18.00;39.70;;;;;;5120709;27;19971;-64
2023/03/27 04:16:28;;;;;;;;;;;18.10;39.30;;;;;;5102468;27;19988;-62
2023/03/27 04:18:54;;;;;;;;;;;17.90;39.70;;;;;;5112839;27;19982;-63
2023/03/27 04:21:20;;;;;;;;;;;17.90;39.30;;;;;;5121034;27;19986;-64
2023/03/27 04:23:50;;;;;;;;;;;17.60;39.90;;;;;;5124126;27;19975;-64
2023/03/27 04:26:16;;;;;;;;;;;17.90;39.70;;;;;;5123220;27;20061;-65
2023/03/27 04:28:42;;;;;;;;;;;17.90;39.80;;;;;;5117545;27;19959;-66
2023/03/27 04:31:09;;;;;;;;;;;17.90;40.50;;;;;;5118978;27;19963;-65
2023/03/27 04:33:45;;;;;;;;;;;17.90;40.80;;;;;;5113010;27;19981;-65
2023/03/27 04:36:13;;;;;;;;;;;17.80;41.00;;;;;;5121492;27;19958;-64
2023/03/27 04:38:39;;;;;;;;;;;17.80;41.90;;;;;;5117917;27;19984;-65
2023/03/27 04:41:06;;;;;;;;;;;17.70;41.40;;;;;;5120927;27;19970;-64
2023/03/27 04:43:35;;;;;;;;;;;17.60;41.70;;;;;;5117803;27;19959;-66
2023/03/27 04:46:02;;;;;;;;;;;17.60;42.20;;;;;;5113203;27;20010;-64
2023/03/27 04:48:28;;;;;;;;;;;17.60;42.70;;;;;;5119649;27;19974;-64
2023/03/27 04:50:54;;;;;;;;;;;17.60;43.50;;;;;;5120146;27;19963;-62
2023/03/27 04:53:22;;;;;;;;;;;17.50;43.50;;;;;;5120395;27;20107;-66
2023/03/27 04:55:49;;;;;;;;;;;17.40;42.10;;;;;;5118244;27;20034;-62
2023/03/27 04:58:17;;;;;;;;;;;17.40;43.50;;;;;;5124151;27;20456;-65
2023/03/27 05:00:49;;;;;;;;;;;17.30;43.70;;;;;;5104162;27;20448;-64
2023/03/27 05:03:18;;;;;;;;;;;17.30;44.00;;;;;;5119347;27;20516;-63
2023/03/27 05:05:50;;;;;;;;;;;17.20;43.80;;;;;;5113712;27;19944;-65
2023/03/27 05:08:16;;;;;;;;;;;17.20;44.80;;;;;;5117346;27;20434;-64
2023/03/27 05:10:43;;;;;;;;;;;17.20;49.60;;;;;;5124143;27;19959;-64
2023/03/27 05:13:09;;;;;;;;;;;17.10;44.60;;;;;;5117903;27;19959;-65
2023/03/27 05:15:35;;;;;;;;;;;17.00;44.60;;;;;;5116515;27;19959;-63
2023/03/27 05:18:01;;;;;;;;;;;17.10;43.80;;;;;;5116569;27;19967;-64
2023/03/27 05:20:27;;;;;;;;;;;17.10;44.00;;;;;;5114077;27;19955;-64
2023/03/27 05:22:55;;;;;;;;;;;17.10;43.80;;;;;;5113817;27;20075;-64
2023/03/27 05:25:21;;;;;;;;;;;17.00;44.80;;;;;;5113509;27;20486;-65
2023/03/27 05:27:48;;;;;;;;;;;17.00;43.10;;;;;;5111151;27;19963;-64
2023/03/27 05:30:15;;;;;;;;;;;17.00;42.40;;;;;;5111737;27;19969;-62
2023/03/27 05:32:48;;;;;;;;;;;17.00;41.40;;;;;;5108152;27;20054;-63
2023/03/27 05:35:15;;;;;;;;;;;16.90;41.50;;;;;;5113200;27;19986;-64
2023/03/27 05:37:46;;;;;;;;;;;17.00;40.60;;;;;;5114817;27;19967;-62
2023/03/27 05:40:14;;;;;;;;;;;17.00;40.30;;;;;;5111954;27;19959;-62
2023/03/27 05:42:44;;;;;;;;;;;17.00;39.80;;;;;;5111272;27;20018;-64
2023/03/27 05:45:10;;;;;;;;;;;17.10;39.20;;;;;;5115470;27;20428;-63
2023/03/27 05:47:47;;;;;;;;;;;17.00;38.10;;;;;;5112974;27;20320;-64
2023/03/27 05:50:13;;;;;;;;;;;17.00;37.60;;;;;;5120840;27;20053;-63
2023/03/27 05:52:40;;;;;;;;;;;17.00;38.60;;;;;;5119242;27;20019;-60
2023/03/27 05:55:07;;;;;;;;;;;17.00;38.80;;;;;;5116915;27;19963;-60
2023/03/27 05:57:35;;;;;;;;;;;17.00;40.90;;;;;;5115938;27;19962;-62
2023/03/27 06:00:06;;;;;;;;;;;16.90;42.30;;;;;;5119863;27;19970;-62
2023/03/27 06:02:33;;;;;;;;;;;16.90;43.10;;;;;;5110953;27;20443;-63
2023/03/27 06:05:00;;;;;;;;;;;16.90;43.60;;;;;;5119971;27;19967;-64
2023/03/27 06:07:27;;;;;;;;;;;16.80;43.90;;;;;;5109527;28;19975;-61
2023/03/27 06:09:53;;;;;;;;;;;16.80;43.10;;;;;;5109827;28;19959;-64
2023/03/27 06:12:19;;;;;;;;;;;16.80;42.50;;;;;;5112149;27;20540;-62
2023/03/27 06:14:46;;;;;;;;;;;16.70;42.70;;;;;;5110387;28;20448;-62
2023/03/27 06:17:12;;;;;;;;;;;16.70;42.80;;;;;;5110044;28;19982;-62
2023/03/27 06:19:38;;;;;;;;;;;16.70;42.70;;;;;;5108597;28;19959;-62
2023/03/27 06:22:04;;;;;;;;;;;16.70;42.90;;;;;;5108851;28;19995;-63
2023/03/27 06:24:30;;;;;;;;;;;16.70;43.10;;;;;;5109206;28;19959;-63
2023/03/27 06:26:57;;;;;;;;;;;16.70;43.10;;;;;;5109950;28;19966;-63
2023/03/27 06:29:26;;;;;;;;;;;16.60;43.10;;;;;;5110815;27;20343;-63
2023/03/27 06:31:56;;;;;;;;;;;16.60;43.50;;;;;;5117676;27;20383;-66
2023/03/27 06:34:22;;;;;;;;;;;16.60;43.70;;;;;;5113722;27;20509;-65
2023/03/27 06:36:48;;;;;;;;;;;16.70;43.70;;;;;;5119197;27;19955;-63
2023/03/27 06:39:15;;;;;;;;;;;16.60;44.50;;;;;;5114086;27;19963;-64
2023/03/27 06:41:41;;;;;;;;;;;16.60;44.60;;;;;;5115166;27;19975;-63
2023/03/27 06:44:07;;;;;;;;;;;16.60;44.50;;;;;;5116249;27;20008;-61
2023/03/27 06:46:33;;;;;;;;;;;16.70;44.70;;;;;;5112394;27;20360;-63
2023/03/27 06:49:00;;;;;;;;;;;16.70;44.70;;;;;;5111390;27;19977;-65
2023/03/27 06:51:26;;;;;;;;;;;16.70;45.00;;;;;;5115617;27;20367;-65
2023/03/27 06:53:52;;;;;;;;;;;16.70;45.50;;;;;;5115098;27;20019;-64
2023/03/27 06:56:19;;;;;;;;;;;16.60;45.80;;;;;;5115683;27;20022;-63
2023/03/27 06:58:45;;;;;;;;;;;16.60;45.90;;;;;;5117672;27;20077;-61
2023/03/27 07:01:12;;;;;;;;;;;16.50;45.60;;;;;;5110488;27;20055;-64
2023/03/27 07:03:38;;;;;;;;;;;16.50;45.80;;;;;;5116220;27;20424;-63
2023/03/27 07:06:04;;;;;;;;;;;16.50;45.80;;;;;;5114267;27;20035;-61
2023/03/27 07:08:30;;;;;;;;;;;16.50;45.90;;;;;;5112868;27;20328;-66
2023/03/27 07:10:56;;;;;;;;;;;16.50;46.00;;;;;;5112464;28;20328;-64
2023/03/27 07:13:22;;;;;;;;;;;16.40;46.10;;;;;;5117405;27;19959;-63
2023/03/27 07:15:48;;;;;;;;;;;16.30;46.90;;;;;;5118311;27;20461;-63
2023/03/27 07:18:15;;;;;;;;;;;16.40;47.00;;;;;;5116743;27;19963;-62
2023/03/27 07:20:41;;;;;;;;;;;16.40;46.80;;;;;;5116306;27;19963;-63
2023/03/27 07:23:07;;;;;;;;;;;16.40;46.90;;;;;;5112086;28;20002;-63
2023/03/27 07:25:36;;;;;;;;;;;16.40;46.80;;;;;;5113848;28;19962;-64
2023/03/27 07:28:06;;;;;;;;;;;16.30;46.80;;;;;;5118598;28;19967;-63
2023/03/27 07:30:33;;;;;;;;;;;16.20;47.10;;;;;;5111571;28;19955;-60
2023/03/27 07:32:59;;;;;;;;;;;16.10;47.20;;;;;;5111520;28;19960;-62
2023/03/27 07:35:25;;;;;;;;;;;16.00;47.60;;;;;;5112605;28;20020;-63
2023/03/27 07:37:54;;;;;;;;;;;16.00;47.80;;;;;;5113424;28;19963;-64
2023/03/27 07:40:21;;;;;;;;;;;15.90;48.10;;;;;;5112605;28;20007;-64
2023/03/27 07:42:48;;;;;;;;;;;15.80;48.10;;;;;;5107162;28;19980;-64
2023/03/27 07:45:17;;;;;;;;;;;15.80;48.00;;;;;;5106042;28;19966;-65
2023/03/27 07:47:44;;;;;;;;;;;15.90;47.90;;;;;;5089095;28;19963;-65
2023/03/27 07:50:12;;;;;;;;;;;15.80;47.90;;;;;;5113395;28;19961;-64
2023/03/27 07:52:44;;;;;;;;;;;15.80;47.80;;;;;;5116147;28;19990;-65
2023/03/27 07:55:11;;;;;;;;;;;15.80;47.90;;;;;;5109331;28;19960;-63
2023/03/27 07:57:44;;;;;;;;;;;15.80;47.90;;;;;;5112491;28;19966;-65
2023/03/27 08:00:10;;;;;;;;;;;15.70;48.20;;;;;;5109543;28;20005;-65
2023/03/27 08:02:37;;;;;;;;;;;15.70;48.30;;;;;;5111326;28;20371;-63
2023/03/27 08:05:04;;;;;;;;;;;15.70;48.50;;;;;;5115135;28;19979;-58
2023/03/27 08:07:31;;;;;;;;;;;15.60;48.90;;;;;;5115538;28;19983;-61
2023/03/27 08:09:57;;;;;;;;;;;15.60;49.60;;;;;;5113048;28;20007;-63
2023/03/27 08:12:23;;;;;;;;;;;15.50;49.80;;;;;;5114409;28;19963;-63
2023/03/27 08:14:49;;;;;;;;;;;15.40;50.00;;;;;;5113050;28;20335;-62
2023/03/27 08:17:15;;;;;;;;;;;15.40;50.30;;;;;;5114770;28;19967;-63
2023/03/27 08:19:44;;;;;;;;;;;15.40;50.00;;;;;;5108668;28;19994;-64
2023/03/27 08:22:10;;;;;;;;;;;15.30;49.60;;;;;;5106766;28;19987;-62
2023/03/27 08:24:36;;;;;;;;;;;15.30;49.70;;;;;;5115930;28;19968;-63
2023/03/27 08:27:02;;;;;;;;;;;15.20;50.00;;;;;;5111230;28;19970;-62
2023/03/27 08:29:28;;;;;;;;;;;15.10;50.20;;;;;;5111467;27;19967;-64
2023/03/27 08:31:54;;;;;;;;;;;15.00;50.30;;;;;;5110938;27;20399;-64
2023/03/27 08:34:20;;;;;;;;;;;14.90;50.30;;;;;;5120583;27;20399;-63
2023/03/27 08:36:46;;;;;;;;;;;14.90;50.70;;;;;;5115204;27;20054;-64
2023/03/27 08:39:12;;;;;;;;;;;15.00;50.80;;;;;;5116241;27;20061;-64
2023/03/27 08:41:49;;;;;;;;;;;15.00;50.60;;;;;;5116611;27;19994;-64
2023/03/27 08:44:17;;;;;;;;;;;14.90;50.70;;;;;;5116115;27;19959;-63
2023/03/27 08:47:06;;;;;;;;;;;14.80;51.00;;;;;;5116198;27;19999;-65
2023/03/27 08:49:40;;;;;;;;;;;14.80;51.30;;;;;;5095400;27;19981;-63
2023/03/27 08:52:20;;;;;;;;;;;14.80;51.80;;;;;;5122050;27;19967;-63
2023/03/27 08:54:52;;;;;;;;;;;14.80;51.60;;;;;;5117103;27;19998;-63
2023/03/27 08:57:19;;;;;;;;;;;14.70;51.60;;;;;;5114302;27;20004;-65
2023/03/27 08:59:46;;;;;;;;;;;14.70;51.90;;;;;;5115414;27;20069;-63
2023/03/27 09:02:15;;;;;;;;;;;14.70;52.00;;;;;;5119319;27;19979;-64
2023/03/27 09:04:50;;;;;;;;;;;14.60;52.40;;;;;;5117052;27;19966;-65
2023/03/27 09:07:54;;;;;;;;;;;14.60;52.50;;;;;;5118426;27;19967;-65
2023/03/27 09:10:42;;;;;;;;;;;14.60;52.80;;;;;;5019245;28;20352;-64
2023/03/27 09:13:14;;;;;;;;;;;14.60;53.00;;;;;;5015919;28;19968;-63
2023/03/27 09:15:54;;;;;;;;;;;14.70;53.00;;;;;;5018304;28;20013;-63
2023/03/27 09:18:32;;;;;;;;;;;14.70;53.10;;;;;;5000744;28;19960;-61
2023/03/27 09:21:03;;;;;;;;;;;14.60;53.30;;;;;;5022178;28;19979;-64
2023/03/27 09:23:35;;;;;;;;;;;14.40;55.30;;;;;;5021277;28;20548;-64
2023/03/27 09:26:05;;;;;;;;;;;14.30;54.80;;;;;;5019100;28;21705;-63
2023/03/27 09:28:37;;;;;;;;;;;14.20;55.00;;;;;;5019581;28;20002;-65
2023/03/27 09:31:19;;;;;;;;;;;14.20;55.20;;;;;;5019456;28;19965;-64
2023/03/27 09:33:45;;;;;;;;;;;14.10;55.20;;;;;;5022840;28;19977;-63
2023/03/27 09:36:12;;;;;;;;;;;14.20;55.40;;;;;;5021595;28;20052;-63
2023/03/27 09:38:40;;;;;;;;;;;13.90;55.30;;;;;;5017584;28;19961;-64
2023/03/27 09:41:10;;;;;;;;;;;14.00;55.40;;;;;;5001996;28;19986;-63
2023/03/27 09:43:40;;;;;;;;;;;13.80;55.50;;;;;;5039525;27;19986;-64
2023/03/27 09:46:08;;;;;;;;;;;13.70;55.80;;;;;;5117509;27;20394;-64
2023/03/27 09:48:37;;;;;;;;;;;13.60;55.90;;;;;;5098042;28;19975;-63
2023/03/27 09:51:04;;;;;;;;;;;13.60;56.20;;;;;;5110067;27;19971;-64
2023/03/27 09:53:31;;;;;;;;;;;13.60;56.40;;;;;;5119079;27;20002;-65
2023/03/27 09:55:59;;;;;;;;;;;13.50;56.20;;;;;;5114698;27;20036;-63
2023/03/27 09:58:35;;;;;;;;;;;13.60;56.50;;;;;;5115186;27;20019;-65
2023/03/27 10:01:18;;;;;;;;;;;13.50;56.90;;;;;;5114458;27;19968;-63
2023/03/27 10:03:50;;;;;;;;;;;13.60;57.20;;;;;;5115822;27;20010;-63
2023/03/27 10:06:24;;;;;;;;;;;13.50;57.20;;;;;;5117613;27;20398;-63
2023/03/27 10:08:50;;;;;;;;;;;13.40;57.30;;;;;;5120313;27;20422;-64
2023/03/27 10:11:19;;;;;;;;;;;13.40;57.50;;;;;;5115726;27;20039;-63
2023/03/27 10:13:46;;;;;;;;;;;13.30;57.40;;;;;;5117494;27;19969;-65
2023/03/27 10:16:16;;;;;;;;;;;13.40;57.90;;;;;;5115677;27;19959;-63
2023/03/27 10:18:44;;;;;;;;;;;13.40;57.80;;;;;;5114750;27;19976;-64
2023/03/27 10:21:15;;;;;;;;;;;13.30;57.90;;;;;;5119741;27;19998;-64
2023/03/27 10:23:46;;;;;;;;;;;13.30;58.50;;;;;;5114977;27;20482;-65
2023/03/27 10:26:15;;;;;;;;;;;13.30;58.80;;;;;;5111584;27;19961;-63
2023/03/27 10:28:44;;;;;;;;;;;13.30;59.50;;;;;;5111078;27;20450;-65
2023/03/27 10:31:25;;;;;;;;;;;13.40;60.10;;;;;;5115566;27;20014;-63
2023/03/27 10:33:51;;;;;;;;;;;13.30;60.70;;;;;;5118806;27;20451;-65
2023/03/27 10:36:17;;;;;;;;;;;13.30;61.10;;;;;;5119942;27;19979;-63
2023/03/27 10:38:49;;;;;;;;;;;13.30;61.50;;;;;;5114453;27;20004;-64
2023/03/27 10:41:16;;;;;;;;;;;13.30;61.60;;;;;;5113931;27;20002;-65
2023/03/27 10:43:43;;;;;;;;;;;13.30;62.00;;;;;;5117084;27;20386;-62
2023/03/27 10:46:11;;;;;;;;;;;13.30;62.10;;;;;;5115125;27;20460;-63
2023/03/27 10:48:43;;;;;;;;;;;13.30;61.50;;;;;;5116232;27;19963;-65
2023/03/27 10:51:27;;;;;;;;;;;13.30;61.70;;;;;;5110195;27;20439;-63
2023/03/27 10:53:54;;;;;;;;;;;13.20;61.30;;;;;;5112940;27;19958;-65
2023/03/27 10:56:23;;;;;;;;;;;13.30;61.30;;;;;;5110379;27;19974;-65
2023/03/27 10:58:51;;;;;;;;;;;13.20;61.10;;;;;;5111879;27;19956;-65
2023/03/27 11:01:37;;;;;;;;;;;13.10;61.10;;;;;;5114336;27;20454;-65
2023/03/27 11:04:03;;;;;;;;;;;13.20;60.80;;;;;;5118282;27;20344;-65
2023/03/27 11:06:35;;;;;;;;;;;13.10;60.20;;;;;;5114203;27;19979;-64
2023/03/27 11:09:24;;;;;;;;;;;13.20;60.40;;;;;;5114191;27;20017;-65
2023/03/27 11:11:57;;;;;;;;;;;13.20;61.00;;;;;;5104976;27;19968;-63
2023/03/27 11:14:43;;;;;;;;;;;13.20;59.90;;;;;;5108232;27;20014;-63
2023/03/27 11:17:11;;;;;;;;;;;13.20;60.10;;;;;;5060011;27;19966;-63
2023/03/27 11:19:51;;;;;;;;;;;13.20;60.40;;;;;;5117567;27;19967;-63
2023/03/27 11:22:29;;;;;;;;;;;13.10;60.70;;;;;;5112587;28;19992;-64
2023/03/27 11:25:12;;;;;;;;;;;13.10;60.90;;;;;;5112460;28;20496;-65
2023/03/27 11:27:48;;;;;;;;;;;13.00;60.90;;;;;;5112614;28;19959;-63
2023/03/27 11:30:20;;;;;;;;;;;13.00;61.40;;;;;;5114898;28;19958;-65
2023/03/27 11:32:51;;;;;;;;;;;13.00;60.80;;;;;;5117583;28;19960;-64
2023/03/27 11:35:22;;;;;;;;;;;13.00;59.80;;;;;;5114318;28;19975;-63
2023/03/27 11:38:00;;;;;;;;;;;13.10;59.90;;;;;;5118017;28;20006;-62
2023/03/27 11:40:33;;;;;;;;;;;13.10;59.30;;;;;;5112442;28;20559;-63
2023/03/27 11:43:00;;;;;;;;;;;13.20;58.80;;;;;;5111961;28;20518;-64
2023/03/27 11:45:28;;;;;;;;;;;13.10;58.50;;;;;;5114322;28;20428;-63
2023/03/27 11:48:05;;;;;;;;;;;13.20;57.50;;;;;;5115812;28;20024;-64
2023/03/27 11:50:36;;;;;;;;;;;13.20;57.40;;;;;;5111483;28;19966;-65
2023/03/27 11:53:02;;;;;;;;;;;13.30;57.00;;;;;;5108567;28;21387;-63
2023/03/27 11:55:33;;;;;;;;;;;13.20;56.60;;;;;;5112022;28;20012;-65
2023/03/27 11:58:09;;;;;;;;;;;13.30;56.60;;;;;;5110994;28;20022;-62
2023/03/27 12:00:44;;;;;;;;;;;13.20;56.80;;;;;;5113912;28;19962;-65
2023/03/27 12:03:10;;;;;;;;;;;13.20;56.10;;;;;;5113583;28;19979;-64
2023/03/27 12:05:37;;;;;;;;;;;13.20;55.90;;;;;;5118979;27;20008;-64
2023/03/27 12:08:26;;;;;;;;;;;13.20;56.10;;;;;;5119167;27;19980;-65
2023/03/27 12:10:54;;;;;;;;;;;13.20;55.80;;;;;;5118811;27;19984;-63
2023/03/27 12:13:43;;;;;;;;;;;13.10;56.20;;;;;;5122182;27;20439;-64
2023/03/27 12:16:21;;;;;;;;;;;13.10;56.10;;;;;;5117718;27;20335;-64
2023/03/27 12:18:50;;;;;;;;;;;13.00;55.60;;;;;;5118763;27;20074;-62
2023/03/27 12:21:31;;;;;;;;;;;13.00;55.80;;;;;;5111970;27;20018;-64
2023/03/27 12:23:57;;;;;;;;;;;12.90;55.80;;;;;;5118136;27;20413;-64
2023/03/27 12:26:42;;;;;;;;;;;12.80;56.00;;;;;;5115022;27;19971;-65
2023/03/27 12:29:08;;;;;;;;;;;12.80;55.90;;;;;;5117891;27;20054;-65
2023/03/27 12:32:04;;;;;;;;;;;12.90;55.80;;;;;;5118993;27;20058;-63
2023/03/27 12:34:33;;;;;;;;;;;12.90;55.50;;;;;;5009795;28;19983;-65
2023/03/27 12:37:00;;;;;;;;;;;12.80;55.60;;;;;;5010127;28;19961;-64
2023/03/27 12:39:27;;;;;;;;;;;12.70;54.40;;;;;;5009237;28;19973;-64
2023/03/27 12:41:53;;;;;;;;;;;12.60;53.90;;;;;;5009719;28;20528;-64
2023/03/27 12:44:27;;;;;;;;;;;12.70;52.90;;;;;;5010353;28;20409;-64
2023/03/27 12:47:15;;;;;;;;;;;12.70;52.20;;;;;;5008670;28;19961;-63
2023/03/27 12:49:42;;;;;;;;;;;12.60;52.20;;;;;;5009007;28;20012;-63
2023/03/27 12:52:09;;;;;;;;;;;12.40;53.00;;;;;;5008628;28;19962;-64
2023/03/27 12:54:37;;;;;;;;;;;12.30;53.80;;;;;;5007707;28;19965;-64
2023/03/27 12:57:10;;;;;;;;;;;12.30;54.90;;;;;;5009196;28;19962;-64
2023/03/27 12:59:38;;;;;;;;;;;12.30;55.60;;;;;;5008087;28;20060;-64
2023/03/27 13:02:05;;;;;;;;;;;12.20;55.60;;;;;;5008969;28;19985;-64
2023/03/27 13:04:43;;;;;;;;;;;12.30;55.80;;;;;;5009513;28;19976;-64
2023/03/27 13:07:30;;;;;;;;;;;12.20;56.00;;;;;;5008627;28;20103;-63
2023/03/27 13:10:02;;;;;;;;;;;12.10;56.50;;;;;;5019272;27;19965;-65
2023/03/27 13:12:47;;;;;;;;;;;12.00;56.40;;;;;;5117588;27;20321;-63
2023/03/27 13:15:19;;;;;;;;;;;12.00;56.70;;;;;;5116630;27;20011;-64
2023/03/27 13:17:53;;;;;;;;;;;12.20;56.70;;;;;;5115975;27;20343;-64
2023/03/27 13:20:30;;;;;;;;;;;12.10;55.70;;;;;;5115764;27;20434;-64
2023/03/27 13:22:56;;;;;;;;;;;12.00;55.30;;;;;;5115834;27;19995;-63
2023/03/27 13:25:30;;;;;;;;;;;12.00;54.50;;;;;;5113885;27;19964;-64
2023/03/27 13:28:08;;;;;;;;;;;12.00;54.10;;;;;;5114241;27;19960;-63
2023/03/27 13:30:48;;;;;;;;;;;11.90;53.70;;;;;;5117571;27;20017;-62
2023/03/27 13:33:37;;;;;;;;;;;11.90;52.90;;;;;;5115615;27;20416;-63
2023/03/27 13:36:03;;;;;;;;;;;11.80;52.50;;;;;;5102490;27;20305;-63
2023/03/27 13:38:48;;;;;;;;;;;12.00;53.00;;;;;;5112721;27;19964;-64
2023/03/27 13:41:32;;;;;;;;;;;12.00;52.70;;;;;;5112680;27;20029;-63
2023/03/27 13:43:59;;;;;;;;;;;11.90;52.50;;;;;;5115659;27;19967;-64
2023/03/27 13:46:28;;;;;;;;;;;11.80;52.70;;;;;;5097607;27;20058;-63
2023/03/27 13:49:03;;;;;;;;;;;11.80;53.10;;;;;;5114964;27;20074;-63
2023/03/27 13:51:49;;;;;;;;;;;11.90;53.60;;;;;;5117413;27;19960;-63
2023/03/27 13:54:18;;;;;;;;;;;11.90;53.90;;;;;;5111915;27;19965;-61
2023/03/27 13:56:49;;;;;;;;;;;11.90;54.00;;;;;;5111614;27;19994;-66
2023/03/27 13:59:35;;;;;;;;;;;11.90;54.20;;;;;;5119611;27;19960;-65
2023/03/27 14:02:13;;;;;;;;;;;11.90;54.30;;;;;;5116239;27;20042;-62
2023/03/27 14:04:52;;;;;;;;;;;12.00;54.50;;;;;;5116012;27;19974;-62
2023/03/27 14:07:18;;;;;;;;;;;12.00;55.00;;;;;;5116999;27;20021;-64
2023/03/27 14:09:47;;;;;;;;;;;11.90;55.10;;;;;;5118967;27;19968;-63
2023/03/27 14:12:16;;;;;;;;;;;11.90;54.80;;;;;;5114916;27;19979;-64
2023/03/27 14:15:00;;;;;;;;;;;12.00;54.90;;;;;;5113219;27;20008;-62
2023/03/27 14:17:33;;;;;;;;;;;12.10;54.60;;;;;;5112998;27;20054;-62
2023/03/27 14:20:06;;;;;;;;;;;12.10;54.60;;;;;;5111596;27;20413;-62
2023/03/27 14:22:41;;;;;;;;;;;12.10;54.70;;;;;;5114054;27;19987;-62
2023/03/27 14:25:13;;;;;;;;;;;12.10;54.60;;;;;;5115707;27;19963;-63
2023/03/27 14:27:41;;;;;;;;;;;12.30;54.40;;;;;;5118440;27;19959;-64
2023/03/27 14:30:16;;;;;;;;;;;12.40;53.80;;;;;;5118124;27;19966;-63
2023/03/27 14:32:42;;;;;;;;;;;12.50;52.80;;;;;;5099572;27;20409;-64